Time;durP1;ratioP1;P1;durP2;ratioP2;P2;SDS_P1;SDS_P2;PMS_P1;PMS_P2;Temp;Humidity;BMP_temperature;BMP_pressure;BME280_temperature;BME280_humidity;BME280_pressure;Samples;Min_cycle;Max_cycle;Signal;HPM_P1;HPM_P2
2023/05/10 00:02:24;;;;;;;12.85;5.97;;;;;;;12.56;100.00;100764.69;5091090;28;20119;-72
2023/05/10 00:04:49;;;;;;;12.85;6.43;;;;;;;12.54;100.00;100765.91;5091111;28;20059;-72
2023/05/10 00:07:17;;;;;;;13.32;6.05;;;;;;;12.51;100.00;100767.16;5090823;28;20077;-71
2023/05/10 00:09:43;;;;;;;13.75;6.28;;;;;;;12.43;100.00;100746.00;5090921;28;20036;-71
2023/05/10 00:12:08;;;;;;;12.52;5.85;;;;;;;12.48;100.00;100752.34;5091163;28;20497;-71
2023/05/10 00:14:33;;;;;;;14.55;6.00;;;;;;;12.44;100.00;100761.00;5090995;28;20024;-71
2023/05/10 00:16:59;;;;;;;13.95;7.25;;;;;;;12.45;100.00;100760.00;5089502;28;20425;-71
2023/05/10 00:19:24;;;;;;;15.80;8.25;;;;;;;12.43;100.00;100756.69;5090711;28;20047;-72
2023/05/10 00:21:49;;;;;;;17.25;7.88;;;;;;;12.42;100.00;100765.78;5090851;28;20038;-71
2023/05/10 00:24:15;;;;;;;16.48;8.13;;;;;;;12.40;100.00;100757.94;5090813;28;20028;-72
2023/05/10 00:26:42;;;;;;;19.10;8.30;;;;;;;12.34;100.00;100755.28;5090785;28;20388;-71
2023/05/10 00:29:07;;;;;;;18.52;9.23;;;;;;;12.37;100.00;100761.03;5089440;28;20042;-71
2023/05/10 00:31:32;;;;;;;19.95;9.80;;;;;;;12.34;100.00;100749.94;5106011;28;20028;-71
2023/05/10 00:33:58;;;;;;;20.23;10.27;;;;;;;12.33;100.00;100750.97;5089313;28;20560;-71
2023/05/10 00:36:23;;;;;;;21.17;10.55;;;;;;;12.32;100.00;100755.50;5090618;28;20541;-71
2023/05/10 00:38:48;;;;;;;22.70;11.00;;;;;;;12.27;100.00;100745.44;5090679;28;20081;-72
2023/05/10 00:41:14;;;;;;;22.50;12.00;;;;;;;12.29;100.00;100747.91;5090503;28;20111;-71
2023/05/10 00:43:39;;;;;;;22.83;11.88;;;;;;;12.28;100.00;100751.59;5090538;28;20028;-71
2023/05/10 00:46:05;;;;;;;21.10;11.60;;;;;;;12.26;100.00;100750.97;5090432;28;20127;-71
2023/05/10 00:48:31;;;;;;;24.80;12.57;;;;;;;12.26;100.00;100751.81;5090220;28;20059;-71
2023/05/10 00:50:57;;;;;;;21.95;10.23;;;;;;;12.23;100.00;100751.41;5090325;28;20035;-72
2023/05/10 00:53:24;;;;;;;18.20;9.82;;;;;;;12.20;100.00;100749.97;5090254;28;20030;-71
2023/05/10 00:55:49;;;;;;;23.75;13.02;;;;;;;12.17;100.00;100750.41;5090375;28;20065;-71
2023/05/10 00:58:15;;;;;;;22.23;12.05;;;;;;;12.18;100.00;100754.72;5090125;28;20041;-71
2023/05/10 01:00:42;;;;;;;24.35;13.93;;;;;;;12.16;100.00;100758.66;5088874;28;20039;-71
2023/05/10 01:03:07;;;;;;;23.85;12.50;;;;;;;12.17;100.00;100758.41;5089995;28;20115;-72
2023/05/10 01:05:33;;;;;;;26.08;12.73;;;;;;;12.05;100.00;100731.53;5089955;28;20159;-71
2023/05/10 01:07:58;;;;;;;26.08;12.95;;;;;;;12.13;100.00;100745.66;5089975;28;20046;-71
2023/05/10 01:10:24;;;;;;;27.65;14.10;;;;;;;12.15;100.00;100747.09;5089959;28;20111;-71
2023/05/10 01:12:49;;;;;;;26.63;12.52;;;;;;;12.12;100.00;100747.53;5089929;28;20471;-71
2023/05/10 01:15:16;;;;;;;26.55;12.88;;;;;;;12.13;100.00;100748.34;5089702;28;20156;-71
2023/05/10 01:17:45;;;;;;;24.33;12.02;;;;;;;12.13;100.00;100757.22;5089730;28;20042;-71
2023/05/10 01:20:11;;;;;;;25.15;14.02;;;;;;;12.11;100.00;100753.09;5089791;28;20035;-71
2023/05/10 01:22:58;;;;;;;27.73;13.25;;;;;;;12.13;100.00;100757.22;5089435;28;20024;-71
2023/05/10 01:25:40;;;;;;;24.38;13.35;;;;;;;12.15;100.00;100756.97;5088380;28;20395;-71
2023/05/10 01:29:01;;;;;;;26.35;13.73;;;;;;;12.13;100.00;100753.69;5089857;28;20031;-71
2023/05/10 01:32:03;;;;;;;28.80;14.87;;;;;;;12.17;100.00;100753.06;5027151;28;20025;-71
2023/05/10 01:34:52;;;;;;;28.92;13.43;;;;;;;12.15;100.00;100748.97;5088642;28;20397;-71
2023/05/10 01:37:28;;;;;;;27.65;15.35;;;;;;;12.14;100.00;100748.16;5089653;28;20034;-71
2023/05/10 01:40:19;;;;;;;27.75;15.27;;;;;;;12.10;100.00;100735.41;5089506;28;20028;-71
2023/05/10 01:42:50;;;;;;;27.90;16.13;;;;;;;12.18;100.00;100753.88;5089673;28;20028;-74
2023/05/10 01:45:38;;;;;;;26.10;13.90;;;;;;;12.22;100.00;100755.13;5089528;28;20024;-74
2023/05/10 01:48:10;;;;;;;24.17;13.68;;;;;;;12.20;100.00;100752.66;5089462;28;20300;-74
2023/05/10 01:50:38;;;;;;;26.35;13.40;;;;;;;12.18;100.00;100759.22;5088217;28;20534;-74
2023/05/10 01:53:07;;;;;;;29.52;15.73;;;;;;;12.16;100.00;100762.13;5089508;28;20173;-74
2023/05/10 01:55:39;;;;;;;27.95;16.95;;;;;;;12.16;100.00;100762.13;5089558;28;20035;-74
2023/05/10 01:58:08;;;;;;;27.55;14.57;;;;;;;12.18;100.00;100754.72;5089313;28;20035;-74
2023/05/10 02:00:35;;;;;;;32.33;17.52;;;;;;;12.19;100.00;100755.53;5089384;28;20024;-74
2023/05/10 02:03:06;;;;;;;30.00;16.92;;;;;;;12.19;100.00;100758.22;5089392;28;20032;-74
2023/05/10 02:05:34;;;;;;;35.47;18.40;;;;;;;12.19;100.00;100764.38;5089103;28;20127;-74
2023/05/10 02:08:01;;;;;;;33.10;17.23;;;;;;;12.19;100.00;100758.22;5089329;28;20277;-74
2023/05/10 02:10:28;;;;;;;35.83;19.98;;;;;;;12.20;100.00;100765.19;5089258;28;20020;-74
2023/05/10 02:12:55;;;;;;;42.90;22.15;;;;;;;12.18;100.00;100767.25;5089222;28;20073;-74
2023/05/10 02:15:23;;;;;;;38.70;20.45;;;;;;;12.19;100.00;100768.91;5089222;28;20039;-74
2023/05/10 02:17:49;;;;;;;41.33;21.58;;;;;;;12.24;100.00;100769.09;5089169;28;20032;-74
2023/05/10 02:20:16;;;;;;;41.03;22.70;;;;;;;12.24;100.00;100769.91;5089182;28;20032;-74
2023/05/10 02:22:44;;;;;;;44.08;21.98;;;;;;;12.25;100.00;100771.56;5088828;28;20047;-71
2023/05/10 02:25:13;;;;;;;40.03;21.52;;;;;;;12.27;100.00;100774.84;5089084;28;20085;-71
2023/05/10 02:27:40;;;;;;;43.53;23.15;;;;;;;12.26;100.00;100775.88;5089108;28;20032;-71
2023/05/10 02:30:07;;;;;;;47.90;22.35;;;;;;;12.28;100.00;100776.47;5089112;28;20016;-71
2023/05/10 02:32:34;;;;;;;45.90;24.60;;;;;;;12.21;100.00;100767.66;5088944;28;20032;-71
2023/05/10 02:35:01;;;;;;;44.50;21.67;;;;;;;12.28;100.00;100776.47;5092069;28;20035;-71
2023/05/10 02:37:27;;;;;;;46.45;23.75;;;;;;;12.30;100.00;100776.28;5093046;28;20479;-71
2023/05/10 02:39:55;;;;;;;45.38;23.13;;;;;;;12.30;100.00;100772.78;5092737;28;20112;-71
2023/05/10 02:42:26;;;;;;;45.47;23.77;;;;;;;12.33;100.00;100775.03;5093024;28;20157;-71
2023/05/10 02:44:56;;;;;;;54.42;27.60;;;;;;;12.27;100.00;100766.00;5092766;28;20114;-71
2023/05/10 02:47:21;;;;;;;45.78;23.67;;;;;;;12.28;100.00;100771.13;5092588;28;20016;-71
2023/05/10 02:49:47;;;;;;;45.33;25.17;;;;;;;12.33;100.00;100772.38;5092646;28;20031;-71
2023/05/10 02:52:16;;;;;;;47.70;26.67;;;;;;;12.34;100.00;100768.66;5092636;28;20030;-71
2023/05/10 02:54:45;;;;;;;51.97;27.15;;;;;;;12.39;100.00;100774.19;5092516;28;20024;-71
2023/05/10 02:57:15;;;;;;;44.67;23.83;;;;;;;12.31;100.00;100761.88;5092687;28;20437;-71
2023/05/10 02:59:42;;;;;;;44.47;25.10;;;;;;;12.33;100.00;100767.84;5092347;28;20479;-71
2023/05/10 03:02:09;;;;;;;45.75;22.95;;;;;;;12.31;100.00;100759.19;5092438;28;20031;-71
2023/05/10 03:04:34;;;;;;;42.38;26.02;;;;;;;12.39;100.00;100780.38;5092348;28;20024;-71
2023/05/10 03:07:00;;;;;;;48.42;27.48;;;;;;;12.39;100.00;100771.50;5092208;28;20135;-71
2023/05/10 03:09:26;;;;;;;41.97;25.88;;;;;;;12.38;100.00;100770.69;5092360;28;20110;-71
2023/05/10 03:11:54;;;;;;;47.47;28.15;;;;;;;12.39;100.00;100777.72;5092331;28;20032;-74
2023/05/10 03:14:45;;;;;;;42.38;24.70;;;;;;;12.41;100.00;100772.13;5092270;28;20028;-74
2023/05/10 03:17:18;;;;;;;42.92;24.20;;;;;;;12.38;100.00;100769.88;5092170;28;20395;-74
2023/05/10 03:19:55;;;;;;;46.67;27.33;;;;;;;12.40;100.00;100774.00;5090572;28;20035;-73
2023/05/10 03:22:30;;;;;;;45.47;23.50;;;;;;;12.41;100.00;100788.19;5092196;28;20039;-73
2023/05/10 03:24:59;;;;;;;53.35;27.90;;;;;;;12.41;100.00;100780.16;5092057;28;20024;-74
2023/05/10 03:27:26;;;;;;;48.88;28.10;;;;;;;12.38;100.00;100781.41;5092187;28;20032;-74
2023/05/10 03:29:53;;;;;;;50.55;28.30;;;;;;;12.40;100.00;100787.38;5091958;28;20027;-74
2023/05/10 03:32:19;;;;;;;47.70;25.17;;;;;;;12.40;100.00;100786.56;5092036;28;20032;-74
2023/05/10 03:34:44;;;;;;;45.80;25.35;;;;;;;12.42;100.00;100795.19;5092013;28;20032;-74
2023/05/10 03:37:10;;;;;;;48.70;27.27;;;;;;;12.41;100.00;100790.84;5091866;28;20035;-74
2023/05/10 03:39:35;;;;;;;46.22;26.98;;;;;;;12.43;100.00;100796.81;5091769;28;20625;-74
2023/05/10 03:42:01;;;;;;;48.92;26.52;;;;;;;12.45;100.00;100794.78;5091893;28;20028;-74
2023/05/10 03:44:26;;;;;;;47.90;27.85;;;;;;;12.45;100.00;100794.78;5090072;28;20027;-74
2023/05/10 03:46:51;;;;;;;47.85;25.83;;;;;;;12.39;100.00;100787.56;5091641;28;20510;-74
2023/05/10 03:49:17;;;;;;;45.58;27.40;;;;;;;12.45;100.00;100797.44;5091703;28;20043;-74
2023/05/10 03:51:43;;;;;;;45.47;26.02;;;;;;;12.45;100.00;100798.25;5091517;28;20077;-74
2023/05/10 03:54:08;;;;;;;52.95;29.58;;;;;;;12.47;100.00;100803.38;5091604;28;20059;-74
2023/05/10 03:56:33;;;;;;;45.15;25.92;;;;;;;12.44;100.00;100799.31;5091553;28;20051;-74
2023/05/10 03:58:59;;;;;;;45.72;26.90;;;;;;;12.37;100.00;100784.31;5091367;28;20035;-74
2023/05/10 04:01:24;;;;;;;53.60;29.58;;;;;;;12.49;100.00;100806.66;5091268;28;20056;-73
2023/05/10 04:03:49;;;;;;;48.08;28.42;;;;;;;12.49;100.00;100809.34;5091415;28;20038;-74
2023/05/10 04:06:15;;;;;;;57.03;26.58;;;;;;;12.49;100.00;100809.34;5091120;28;20052;-74
2023/05/10 04:08:40;;;;;;;49.75;31.25;;;;;;;12.49;100.00;100817.38;5091087;28;20032;-73
2023/05/10 04:11:11;;;;;;;49.58;27.90;;;;;;;12.49;100.00;100814.69;5091154;28;20043;-74
2023/05/10 04:13:37;;;;;;;49.63;28.95;;;;;;;12.50;100.00;100811.00;5091091;28;20028;-74
2023/05/10 04:16:02;;;;;;;48.95;26.90;;;;;;;12.45;100.00;100808.97;5091010;28;20039;-73
2023/05/10 04:18:28;;;;;;;51.28;27.45;;;;;;;12.49;100.00;100812.03;5089842;28;20118;-74
2023/05/10 04:20:53;;;;;;;47.97;26.27;;;;;;;12.48;100.00;100813.06;5090874;28;20425;-74
2023/05/10 04:23:18;;;;;;;45.53;27.20;;;;;;;12.48;100.00;100821.91;5091015;28;20028;-74
2023/05/10 04:25:44;;;;;;;44.60;25.10;;;;;;;12.45;100.00;100816.16;5090866;28;20047;-74
2023/05/10 04:28:09;;;;;;;43.80;23.17;;;;;;;12.47;100.00;100816.75;5090684;28;20035;-74
2023/05/10 04:30:34;;;;;;;42.13;23.02;;;;;;;12.46;100.00;100820.47;5089515;28;20024;-74
2023/05/10 04:33:01;;;;;;;38.72;20.75;;;;;;;12.41;100.00;100807.72;5072502;28;20032;-74
2023/05/10 04:35:27;;;;;;;42.17;21.95;;;;;;;12.42;100.00;100817.41;5090743;28;20440;-74
2023/05/10 04:37:53;;;;;;;41.42;23.05;;;;;;;12.39;100.00;100815.16;5090612;28;20028;-74
2023/05/10 04:40:18;;;;;;;40.38;21.08;;;;;;;12.40;100.00;100816.78;5089254;28;20505;-74
2023/05/10 04:42:44;;;;;;;40.10;19.67;;;;;;;12.41;100.00;100818.41;5089021;28;20383;-74
2023/05/10 04:45:10;;;;;;;38.47;22.88;;;;;;;12.39;100.00;100825.84;5090394;28;20036;-74
2023/05/10 04:47:36;;;;;;;37.95;21.77;;;;;;;12.36;100.00;100815.53;5090263;28;20110;-74
2023/05/10 04:50:02;;;;;;;39.40;21.20;;;;;;;12.39;100.00;100833.03;5090316;28;20020;-74
2023/05/10 04:52:28;;;;;;;38.42;20.48;;;;;;;12.35;100.00;100829.16;5090331;28;20490;-74
2023/05/10 04:54:53;;;;;;;37.92;21.15;;;;;;;12.31;100.00;100827.91;5090371;28;20497;-74
2023/05/10 04:57:18;;;;;;;40.20;21.95;;;;;;;12.26;100.00;100836.53;5089649;28;20062;-74
2023/05/10 04:59:44;;;;;;;42.88;20.40;;;;;;;12.21;100.00;100837.19;5088746;28;20632;-74
2023/05/10 05:02:09;;;;;;;36.17;19.05;;;;;;;12.19;100.00;100827.72;5090085;28;20032;-74
2023/05/10 05:04:34;;;;;;;36.85;16.88;;;;;;;12.18;100.00;100847.47;5090090;28;20039;-74
2023/05/10 05:07:00;;;;;;;35.58;18.48;;;;;;;12.14;100.00;100843.56;5089764;28;20477;-74
2023/05/10 05:09:25;;;;;;;35.88;20.38;;;;;;;12.11;100.00;100841.31;5090032;28;20028;-74
2023/05/10 05:11:50;;;;;;;39.65;18.13;;;;;;;12.10;100.00;100848.50;5089964;28;20067;-74
2023/05/10 05:14:16;;;;;;;34.03;17.50;;;;;;;12.08;100.00;100850.56;5089862;28;20114;-74
2023/05/10 05:16:41;;;;;;;35.00;17.73;;;;;;;12.06;100.00;100849.94;5089986;28;20031;-74
2023/05/10 05:19:07;;;;;;;33.25;17.33;;;;;;;12.08;100.00;100853.25;5089881;28;20968;-74
2023/05/10 05:21:32;;;;;;;31.73;15.48;;;;;;;12.13;100.00;100849.94;5089876;28;20375;-74
2023/05/10 05:23:58;;;;;;;36.35;17.52;;;;;;;12.11;100.00;100855.50;5088611;28;20032;-74
2023/05/10 05:26:23;;;;;;;33.85;17.02;;;;;;;12.16;100.00;100854.91;5089741;28;20032;-74
2023/05/10 05:28:51;;;;;;;32.75;19.75;;;;;;;12.15;100.00;100850.56;5089693;28;20413;-75
2023/05/10 05:31:17;;;;;;;32.53;17.08;;;;;;;12.19;100.00;100863.31;5089594;28;20028;-74
2023/05/10 05:33:42;;;;;;;33.28;18.23;;;;;;;12.23;100.00;100853.81;5088683;28;20034;-74
2023/05/10 05:36:08;;;;;;;30.45;17.20;;;;;;;12.23;100.00;100856.50;5090106;28;20057;-75
2023/05/10 05:38:33;;;;;;;34.30;17.38;;;;;;;12.24;100.00;100849.31;5071961;28;20421;-74
2023/05/10 05:40:59;;;;;;;30.08;16.65;;;;;;;12.29;100.00;100844.19;5089742;28;20023;-75
2023/05/10 05:43:24;;;;;;;29.23;15.90;;;;;;;12.44;100.00;100859.97;5089616;28;20073;-74
2023/05/10 05:45:52;;;;;;;32.15;16.63;;;;;;;12.49;100.00;100860.16;5087309;28;20479;-73
2023/05/10 05:48:17;;;;;;;30.77;18.63;;;;;;;12.46;100.00;100857.91;5082517;28;20508;-70
2023/05/10 05:50:45;;;;;;;32.38;18.85;;;;;;;12.46;100.00;100868.63;5081504;28;20016;-70
2023/05/10 05:53:11;;;;;;;29.85;14.80;;;;;;;12.52;100.00;100861.63;5082124;28;20032;-69
2023/05/10 05:55:36;;;;;;;31.35;17.83;;;;;;;12.58;100.00;100861.59;5082285;28;20035;-70
2023/05/10 05:58:02;;;;;;;31.23;17.92;;;;;;;12.67;100.00;100865.69;5081267;28;20060;-78
2023/05/10 06:00:27;;;;;;;31.20;17.42;;;;;;;12.77;100.00;100867.13;5078709;28;20029;-70
2023/05/10 06:02:53;;;;;;;31.17;16.75;;;;;;;12.78;100.00;100872.25;5081757;28;20055;-71
2023/05/10 06:05:18;;;;;;;32.05;17.35;;;;;;;12.82;100.00;100870.81;5082269;28;20086;-71
2023/05/10 06:07:43;;;;;;;31.17;16.27;;;;;;;12.85;100.00;100873.06;5083228;28;20032;-73
2023/05/10 06:10:09;;;;;;;31.77;16.38;;;;;;;12.71;100.00;100863.44;5086594;28;20035;-74
2023/05/10 06:12:35;;;;;;;29.92;16.10;;;;;;;12.82;100.00;100886.84;5085615;28;20520;-74
2023/05/10 06:15:01;;;;;;;30.25;17.17;;;;;;;12.82;100.00;100883.38;5087164;28;20115;-73
2023/05/10 06:17:27;;;;;;;29.67;18.25;;;;;;;12.90;100.00;100891.97;5085114;28;20028;-73
2023/05/10 06:19:52;;;;;;;30.90;16.25;;;;;;;13.00;100.00;100896.91;5087257;28;20097;-73
2023/05/10 06:22:18;;;;;;;34.20;16.23;;;;;;;13.07;100.00;100892.34;5085271;28;20029;-75
2023/05/10 06:24:43;;;;;;;25.88;15.65;;;;;;;13.18;100.00;100893.53;5087856;28;20028;-73
2023/05/10 06:27:08;;;;;;;28.38;14.82;;;;;;;13.20;100.00;100901.34;5085890;28;20491;-77
2023/05/10 06:29:34;;;;;;;31.42;16.42;;;;;;;13.16;100.00;100895.59;5085000;28;20043;-74
2023/05/10 06:31:59;;;;;;;30.98;15.55;;;;;;;13.03;100.00;100893.78;5084887;28;20540;-74
2023/05/10 06:34:25;;;;;;;27.00;14.93;;;;;;;12.99;100.00;100892.56;5085628;28;20043;-72
2023/05/10 06:36:51;;;;;;;29.52;16.48;;;;;;;12.95;100.00;100904.75;5084767;28;20019;-79
2023/05/10 06:39:17;;;;;;;29.17;14.77;;;;;;;12.88;100.00;100901.25;5088441;28;20120;-77
2023/05/10 06:41:42;;;;;;;30.13;16.80;;;;;;;12.85;100.00;100893.66;5093116;28;20043;-75
2023/05/10 06:44:08;;;;;;;26.65;14.52;;;;;;;12.86;100.00;100911.34;5092890;28;20047;-77
2023/05/10 06:46:33;;;;;;;27.00;14.15;;;;;;;12.83;100.00;100907.22;5093816;28;20111;-77
2023/05/10 06:48:59;;;;;;;29.27;15.15;;;;;;;12.79;100.00;100911.38;5093496;28;20024;-77
2023/05/10 06:51:24;;;;;;;32.05;14.93;;;;;;;12.83;100.00;100919.78;5093681;28;20040;-77
2023/05/10 06:53:49;;;;;;;29.98;16.55;;;;;;;12.81;100.00;100911.16;5094052;28;20494;-77
2023/05/10 06:56:15;;;;;;;30.70;16.33;;;;;;;12.80;100.00;100910.31;5093901;28;20555;-77
2023/05/10 06:58:40;;;;;;;31.45;17.70;;;;;;;12.77;100.00;100905.41;5093646;28;20044;-78
2023/05/10 07:01:05;;;;;;;31.52;16.55;;;;;;;12.87;100.00;100923.72;5092441;28;20032;-78
2023/05/10 07:03:31;;;;;;;30.83;16.67;;;;;;;12.88;100.00;100917.31;5093837;28;20093;-78
2023/05/10 07:06:04;;;;;;;32.80;17.95;;;;;;;12.92;100.00;100926.56;5093647;28;20456;-76
2023/05/10 07:08:30;;;;;;;29.65;16.20;;;;;;;12.97;100.00;100928.59;5086081;28;20111;-72
2023/05/10 07:11:01;;;;;;;29.23;16.50;;;;;;;12.92;100.00;100913.19;5083615;28;20047;-71
2023/05/10 07:13:26;;;;;;;30.70;17.95;;;;;;;12.96;100.00;100929.66;5085855;28;20045;-71
2023/05/10 07:15:51;;;;;;;33.00;16.85;;;;;;;13.02;100.00;100935.00;5085403;28;20024;-71
2023/05/10 07:18:17;;;;;;;31.95;16.70;;;;;;;12.93;100.00;100931.72;5086049;28;20122;-71
2023/05/10 07:20:42;;;;;;;33.53;19.70;;;;;;;13.02;100.00;100944.84;5084358;28;20051;-71
2023/05/10 07:23:07;;;;;;;28.90;16.52;;;;;;;13.04;100.00;100948.16;5086226;28;20486;-71
2023/05/10 07:25:33;;;;;;;29.77;16.20;;;;;;;13.05;100.00;100936.44;5086330;28;20020;-72
2023/05/10 07:27:58;;;;;;;29.40;15.63;;;;;;;13.08;100.00;100944.84;5085882;28;20118;-70
2023/05/10 07:30:24;;;;;;;34.45;17.65;;;;;;;13.07;100.00;100937.88;5084945;28;20030;-71
2023/05/10 07:32:49;;;;;;;33.63;18.75;;;;;;;13.02;100.00;100951.06;5084774;28;20401;-75
2023/05/10 07:35:14;;;;;;;34.42;18.45;;;;;;;12.99;100.00;100956.81;5084592;28;20046;-77
2023/05/10 07:37:40;;;;;;;36.50;18.27;;;;;;;12.94;100.00;100949.44;5084130;28;20032;-76
2023/05/10 07:40:06;;;;;;;34.15;18.23;;;;;;;12.87;100.00;100951.28;5084559;28;20120;-76
2023/05/10 07:42:31;;;;;;;32.75;19.10;;;;;;;12.84;100.00;100946.38;5084294;28;20065;-76
2023/05/10 07:44:57;;;;;;;35.22;18.83;;;;;;;12.85;100.00;100957.88;5083209;28;20200;-76
2023/05/10 07:47:23;;;;;;;31.67;16.10;;;;;;;12.83;100.00;100952.72;5084241;28;20032;-71
2023/05/10 07:49:48;;;;;;;30.63;17.92;;;;;;;12.87;100.00;100955.84;5085093;28;20024;-71
2023/05/10 07:52:14;;;;;;;33.00;20.42;;;;;;;12.83;100.00;100958.09;5083451;28;20049;-71
2023/05/10 07:54:39;;;;;;;39.13;20.42;;;;;;;12.89;100.00;100959.09;5083371;28;20153;-71
2023/05/10 07:57:04;;;;;;;35.40;20.55;;;;;;;12.91;100.00;100967.75;5084305;28;20020;-71
2023/05/10 07:59:30;;;;;;;30.65;18.85;;;;;;;12.89;100.00;100965.28;5082915;28;20406;-71
2023/05/10 08:01:56;;;;;;;31.52;17.13;;;;;;;12.82;100.00;100969.00;5083418;28;20050;-76
2023/05/10 08:04:21;;;;;;;31.55;19.42;;;;;;;12.82;100.00;100975.19;5083232;28;20063;-75
2023/05/10 08:06:47;;;;;;;31.75;16.27;;;;;;;12.84;100.00;100975.81;5083058;28;20094;-71
2023/05/10 08:09:13;;;;;;;33.03;20.38;;;;;;;12.91;100.00;100979.28;5082388;28;20028;-71
2023/05/10 08:11:38;;;;;;;36.78;18.90;;;;;;;13.00;100.00;100984.44;5082175;28;20562;-71
2023/05/10 08:14:04;;;;;;;31.55;17.55;;;;;;;13.05;100.00;100985.44;5083146;28;20483;-75
2023/05/10 08:16:29;;;;;;;34.28;17.65;;;;;;;13.06;100.00;100983.59;5083399;28;20039;-76
2023/05/10 08:18:55;;;;;;;30.45;18.35;;;;;;;13.14;100.00;100994.88;5082802;28;20066;-71
2023/05/10 08:21:20;;;;;;;28.20;16.38;;;;;;;13.23;100.00;100991.97;5081219;28;20032;-71
2023/05/10 08:23:45;;;;;;;31.15;16.58;;;;;;;13.30;100.00;100988.28;5082421;28;20434;-72
2023/05/10 08:26:11;;;;;;;29.77;17.42;;;;;;;13.41;100.00;100986.78;5081343;28;20115;-75
2023/05/10 08:28:36;;;;;;;33.00;17.05;;;;;;;13.48;100.00;100994.81;5082559;28;21224;-75
2023/05/10 08:31:02;;;;;;;28.50;17.23;;;;;;;13.51;100.00;101000.56;5080385;28;20589;-72
2023/05/10 08:33:27;;;;;;;29.70;17.27;;;;;;;13.50;100.00;101006.97;5088365;28;20036;-75
2023/05/10 08:35:52;;;;;;;26.75;14.65;;;;;;;13.48;100.00;101005.53;5090078;28;20486;-74
2023/05/10 08:38:18;;;;;;;26.85;14.43;;;;;;;13.47;100.00;101015.44;5090298;28;20028;-75
2023/05/10 08:40:45;;;;;;;27.75;15.30;;;;;;;13.41;100.00;101010.91;5090283;28;20059;-75
2023/05/10 08:43:14;;;;;;;24.67;14.25;;;;;;;13.50;100.00;101011.50;5090328;28;20081;-75
2023/05/10 08:45:42;;;;;;;26.10;15.20;;;;;;;13.57;100.00;101014.97;5090170;28;20114;-75
2023/05/10 08:48:09;;;;;;;26.17;14.82;;;;;;;13.67;100.00;101001.94;5090229;28;20062;-75
2023/05/10 08:50:40;;;;;;;24.48;13.38;;;;;;;13.95;100.00;101019.53;5090072;28;20097;-75
2023/05/10 08:53:09;;;;;;;26.23;14.00;;;;;;;14.20;100.00;101024.94;5089976;28;20039;-75
2023/05/10 08:55:37;;;;;;;23.52;12.77;;;;;;;14.30;100.00;101024.47;5090429;28;20527;-75
2023/05/10 08:58:03;;;;;;;22.45;11.25;;;;;;;14.46;100.00;101023.94;5089829;28;20127;-75
2023/05/10 09:00:29;;;;;;;21.30;13.00;;;;;;;14.51;100.00;101031.34;5089816;28;20028;-74
2023/05/10 09:02:54;;;;;;;21.25;11.80;;;;;;;14.48;100.00;101037.97;5089833;28;20039;-74
2023/05/10 09:05:20;;;;;;;23.38;12.80;;;;;;;14.36;100.00;101031.69;5089723;28;20051;-75
2023/05/10 09:07:45;;;;;;;24.58;13.40;;;;;;;14.41;100.00;101039.91;5089876;28;20028;-75
2023/05/10 09:10:13;;;;;;;19.35;10.88;;;;;;;14.26;100.00;101040.19;5089902;28;20024;-77
2023/05/10 09:12:38;;;;;;;19.08;10.23;;;;;;;14.16;100.00;101039.84;5089648;28;20471;-74
2023/05/10 09:15:06;;;;;;;20.98;11.68;;;;;;;14.08;100.00;101043.59;5056166;28;20040;-74
2023/05/10 09:17:31;;;;;;;22.17;11.43;;;;;;;14.02;100.00;101039.13;5089491;28;20375;-75
2023/05/10 09:20:02;;;;;;;22.17;12.15;;;;;;;14.01;100.00;101053.53;5089536;28;20028;-74
2023/05/10 09:22:27;;;;;;;29.20;10.70;;;;;;;14.02;100.00;101042.59;5089548;28;20029;-75
2023/05/10 09:25:05;;;;;;;19.02;10.50;;;;;;;14.08;100.00;101043.59;5089456;28;20498;-75
2023/05/10 09:27:30;;;;;;;19.75;11.10;;;;;;;14.10;100.00;101048.75;5089158;28;20082;-72
2023/05/10 09:29:56;;;;;;;18.17;10.57;;;;;;;14.13;100.00;101056.38;5089029;28;20032;-77
2023/05/10 09:32:21;;;;;;;19.13;10.80;;;;;;;14.14;100.00;101053.47;5087828;28;20032;-77
2023/05/10 09:34:49;;;;;;;18.95;10.40;;;;;;;14.12;100.00;101062.75;5088908;28;20055;-76
2023/05/10 09:37:14;;;;;;;18.67;10.48;;;;;;;14.09;100.00;101055.16;5082054;28;20031;-80
2023/05/10 09:39:41;;;;;;;21.00;12.02;;;;;;;14.13;100.00;101065.25;5080622;28;20945;-79
2023/05/10 09:42:09;;;;;;;20.88;11.23;;;;;;;14.12;100.00;101066.28;5082032;28;20464;-79
2023/05/10 09:44:35;;;;;;;16.90;9.68;;;;;;;14.12;100.00;101068.13;5080617;28;20020;-80
2023/05/10 09:47:01;;;;;;;17.02;9.45;;;;;;;14.11;100.00;101067.31;5082019;28;20483;-74
2023/05/10 09:49:27;;;;;;;20.15;9.75;;;;;;;14.13;100.00;101070.59;5081425;28;20028;-75
2023/05/10 09:52:03;;;;;;;18.42;10.02;;;;;;;14.17;100.00;101076.34;5084791;28;20032;-75
2023/05/10 09:54:29;;;;;;;16.35;8.45;;;;;;;14.12;100.00;101070.81;5087680;28;20233;-75
2023/05/10 09:56:54;;;;;;;16.75;9.88;;;;;;;14.11;100.00;101077.22;5089056;28;20111;-74
2023/05/10 09:59:20;;;;;;;19.60;9.75;;;;;;;14.05;100.00;101072.72;5088885;28;20040;-74
2023/05/10 10:01:53;;;;;;;17.05;8.75;;;;;;;14.00;100.00;101073.34;5089169;28;20069;-74
2023/05/10 10:04:21;;;;;;;16.98;9.80;;;;;;;13.99;100.00;101071.69;5089267;28;20039;-74
2023/05/10 10:06:46;;;;;;;17.20;9.85;;;;;;;13.98;100.00;101062.00;5088813;28;20043;-74
2023/05/10 10:09:13;;;;;;;19.27;11.00;;;;;;;14.07;100.00;101065.25;5087679;28;20036;-74
2023/05/10 10:11:39;;;;;;;20.48;10.50;;;;;;;14.14;100.00;101060.69;5087500;28;20391;-74
2023/05/10 10:14:05;;;;;;;17.52;10.02;;;;;;;14.28;100.00;101059.59;5087754;28;20056;-74
2023/05/10 10:16:31;;;;;;;15.90;9.23;;;;;;;14.42;100.00;101073.75;5088877;28;20127;-74
2023/05/10 10:18:57;;;;;;;21.05;10.55;;;;;;;14.64;100.00;101064.31;5088758;28;20032;-74
2023/05/10 10:21:23;;;;;;;18.02;10.82;;;;;;;14.90;100.00;101075.88;5088605;28;20051;-74
2023/05/10 10:23:49;;;;;;;18.55;10.13;;;;;;;15.23;100.00;101072.06;5088782;28;20387;-74
2023/05/10 10:26:15;;;;;;;18.52;10.52;;;;;;;15.42;100.00;101076.41;5088812;28;20020;-75
2023/05/10 10:29:24;;;;;;;17.52;9.23;;;;;;;15.67;100.00;101078.22;5087370;28;20036;-74
2023/05/10 10:32:08;;;;;;;15.57;9.73;;;;;;;15.89;100.00;101083.97;5087801;28;20063;-76
2023/05/10 10:34:34;;;;;;;15.13;8.23;;;;;;;15.97;100.00;101075.59;5089112;28;20024;-75
2023/05/10 10:37:05;;;;;;;18.02;8.15;;;;;;;16.05;100.00;101085.22;5087437;28;20043;-75
2023/05/10 10:39:31;;;;;;;15.05;9.15;;;;;;;16.06;100.00;101082.31;5088126;28;20036;-74
2023/05/10 10:41:58;;;;;;;16.00;9.27;;;;;;;16.12;100.00;101065.25;5089028;28;20104;-74
2023/05/10 10:44:37;;;;;;;14.35;8.18;;;;;;;16.26;100.00;101067.75;5088827;28;20050;-74
2023/05/10 10:47:14;;;;;;;14.45;7.85;;;;;;;16.40;100.00;101070.03;5088823;28;20039;-74
2023/05/10 10:49:45;;;;;;;13.10;7.00;;;;;;;16.40;100.00;101069.19;5087396;28;20054;-74
2023/05/10 10:52:32;;;;;;;14.05;7.13;;;;;;;16.27;100.00;101067.53;5088759;28;20063;-74
2023/05/10 10:55:08;;;;;;;10.95;6.50;;;;;;;16.04;100.00;101072.84;5090252;28;20139;-74
2023/05/10 10:58:00;;;;;;;13.07;6.68;;;;;;;15.82;100.00;101077.84;5092414;28;20024;-74
2023/05/10 11:00:33;;;;;;;11.55;6.22;;;;;;;15.50;100.00;101072.59;5092305;28;20139;-74
2023/05/10 11:03:04;;;;;;;12.43;6.78;;;;;;;15.25;100.00;101078.06;5092336;28;20043;-74
2023/05/10 11:05:32;;;;;;;12.53;6.80;;;;;;;15.09;100.00;101079.41;5092312;28;20062;-75